Wetterdaten: Woche 07.02.05 - 13.02.05 (KW6)
Datum Zeit Temperatur Luftfeuchte Luftdruck Niederschlag Windrichtung Taupunkt Windchill Wind
07.02.2005 00:00 -5,8 C 96 % 1025 hPa 0,0 l/m N-NW -6,4 C -6,9 C 6,6 km/h (2 Bft)
07.02.2005 01:00 -6,1 C 97 % 1025 hPa 0,0 l/m N -6,5 C -7,7 C 7,7 km/h (2 Bft)
07.02.2005 02:00 -6,6 C 96 % 1025 hPa 0,0 l/m N -7,2 C -6,9 C 2,6 km/h (1 Bft)
07.02.2005 03:00 -7,8 C 95 % 1025 hPa 0,0 l/m N -8,5 C -7,8 C 0,0 km/h (0 Bft)
07.02.2005 04:00 -8,7 C 94 % 1025 hPa 0,0 l/m N -9,5 C -8,7 C 0,0 km/h (0 Bft)
07.02.2005 05:00 -9,3 C 94 % 1025 hPa 0,0 l/m N-NW -10,0 C -9,3 C 0,5 km/h (0 Bft)
07.02.2005 06:00 -9,7 C 94 % 1025 hPa 0,0 l/m NW -10,5 C -9,8 C 0,7 km/h (0 Bft)
07.02.2005 07:00 -10,2 C 94 % 1025 hPa 0,0 l/m N -10,9 C -10,2 C 0,0 km/h (0 Bft)
07.02.2005 08:00 -10,1 C 94 % 1025 hPa 0,0 l/m NW -10,8 C -10,1 C 0,8 km/h (0 Bft)
07.02.2005 09:00 -9,2 C 94 % 1026 hPa 0,0 l/m N -9,9 C -9,4 C 3,0 km/h (1 Bft)
07.02.2005 10:00 -7,6 C 93 % 1026 hPa 0,0 l/m W-NW -8,5 C -7,7 C 2,2 km/h (1 Bft)
07.02.2005 11:00 -5,3 C 83 % 1026 hPa 0,0 l/m NW -7,7 C -6,0 C 6,4 km/h (2 Bft)
07.02.2005 12:00 -2,8 C 70 % 1026 hPa 0,0 l/m NW -7,6 C -3,4 C 5,7 km/h (1 Bft)
07.02.2005 13:00 0,7 C 58 % 1025 hPa 0,0 l/m N -6,7 C 0,7 C 0,3 km/h (0 Bft)
07.02.2005 14:00 2,3 C 51 % 1025 hPa 0,0 l/m O-NO -6,7 C 2,1 C 2,1 km/h (1 Bft)
07.02.2005 15:00 2,4 C 51 % 1025 hPa 0,0 l/m O -6,6 C 2,4 C 1,0 km/h (0 Bft)
07.02.2005 16:00 1,1 C 56 % 1025 hPa 0,0 l/m N -6,8 C 1,1 C 0,0 km/h (0 Bft)
07.02.2005 17:00 -1,5 C 62 % 1025 hPa 0,0 l/m NW -7,8 C -1,5 C 1,0 km/h (0 Bft)
07.02.2005 18:00 -3,1 C 67 % 1026 hPa 0,0 l/m N -8,3 C -3,1 C 0,0 km/h (0 Bft)
07.02.2005 19:00 -4,6 C 72 % 1026 hPa 0,0 l/m N -8,9 C -4,6 C 0,0 km/h (0 Bft)
07.02.2005 20:00 -5,8 C 77 % 1026 hPa 0,0 l/m NW -9,3 C -5,9 C 1,0 km/h (0 Bft)
07.02.2005 21:00 -6,3 C 82 % 1026 hPa 0,0 l/m NW -8,8 C -7,7 C 6,8 km/h (2 Bft)
07.02.2005 22:00 -6,8 C 86 % 1026 hPa 0,0 l/m N -8,8 C -6,8 C 0,0 km/h (0 Bft)
07.02.2005 23:00 -8,1 C 85 % 1027 hPa 0,0 l/m N -10,2 C -8,1 C 0,0 km/h (0 Bft)
08.02.2005 00:00 -9,3 C 85 % 1027 hPa 0,0 l/m N -11,4 C -9,3 C 0,0 km/h (0 Bft)
08.02.2005 01:00 -9,9 C 85 % 1027 hPa 0,0 l/m N -12,0 C -9,9 C 0,0 km/h (0 Bft)
08.02.2005 02:00 -10,9 C 85 % 1027 hPa 0,0 l/m N -12,9 C -10,9 C 0,0 km/h (0 Bft)
08.02.2005 03:00 -11,8 C 85 % 1027 hPa 0,0 l/m N -13,8 C -11,8 C 0,0 km/h (0 Bft)
08.02.2005 04:00 -11,6 C 85 % 1027 hPa 0,0 l/m N -13,6 C -11,6 C 0,0 km/h (0 Bft)
08.02.2005 05:00 -12,4 C 85 % 1027 hPa 0,0 l/m N -14,4 C -12,4 C 0,0 km/h (0 Bft)
08.02.2005 06:00 -12,1 C 85 % 1028 hPa 0,0 l/m N -14,1 C -12,1 C 0,0 km/h (0 Bft)
08.02.2005 07:00 -11,8 C 85 % 1028 hPa 0,0 l/m N -13,8 C -11,8 C 0,0 km/h (0 Bft)
08.02.2005 08:00 -11,5 C 85 % 1029 hPa 0,0 l/m N -13,5 C -11,5 C 0,0 km/h (0 Bft)
08.02.2005 09:00 -9,6 C 91 % 1029 hPa 0,0 l/m N -10,8 C -9,6 C 0,0 km/h (0 Bft)
08.02.2005 10:00 -6,6 C 94 % 1029 hPa 0,0 l/m N -7,4 C -6,6 C 0,0 km/h (0 Bft)
08.02.2005 11:00 -3,2 C 86 % 1029 hPa 0,0 l/m S-SW -5,3 C -4,3 C 4,4 km/h (1 Bft)
08.02.2005 12:00 1,4 C 58 % 1029 hPa 0,0 l/m S-SO -6,0 C -2,3 C 12,0 km/h (2 Bft)
08.02.2005 13:00 4,3 C 48 % 1029 hPa 0,0 l/m S-SW -5,9 C 1,3 C 11,0 km/h (2 Bft)
08.02.2005 14:00 5,7 C 44 % 1029 hPa 0,0 l/m S -5,7 C 3,8 C 9,6 km/h (2 Bft)
08.02.2005 15:00 5,1 C 45 % 1029 hPa 0,0 l/m S-SW -5,9 C 3,5 C 9,2 km/h (2 Bft)
08.02.2005 16:00 3,7 C 49 % 1029 hPa 0,0 l/m S-SW -6,0 C 3,0 C 5,5 km/h (1 Bft)
08.02.2005 17:00 2,2 C 55 % 1029 hPa 0,0 l/m N -6,0 C 2,2 C 0,0 km/h (0 Bft)
08.02.2005 18:00 1,1 C 61 % 1029 hPa 0,0 l/m N -5,5 C 1,1 C 0,0 km/h (0 Bft)
08.02.2005 19:00 0,5 C 65 % 1030 hPa 0,0 l/m N -5,4 C 0,5 C 0,0 km/h (0 Bft)
08.02.2005 20:00 0,2 C 69 % 1030 hPa 0,0 l/m N -4,9 C 0,2 C 0,0 km/h (0 Bft)
08.02.2005 21:00 -0,4 C 72 % 1030 hPa 0,0 l/m N -4,8 C -0,4 C 0,0 km/h (0 Bft)
08.02.2005 22:00 -1,0 C 75 % 1030 hPa 0,0 l/m S-SW -4,9 C -1,2 C 1,8 km/h (1 Bft)
08.02.2005 23:00 -1,4 C 78 % 1031 hPa 0,0 l/m S-SW -4,7 C -1,4 C 0,9 km/h (0 Bft)
09.02.2005 00:00 -1,5 C 79 % 1031 hPa 0,0 l/m N -4,6 C -1,5 C 0,0 km/h (0 Bft)
09.02.2005 01:00 -1,5 C 80 % 1030 hPa 0,0 l/m N -4,5 C -1,5 C 0,0 km/h (0 Bft)
09.02.2005 02:00 -1,4 C 80 % 1031 hPa 0,0 l/m S -4,3 C -1,5 C 1,3 km/h (1 Bft)
09.02.2005 03:00 -2,1 C 78 % 1030 hPa 0,0 l/m N -5,4 C -2,1 C 0,0 km/h (0 Bft)
09.02.2005 04:00 -2,8 C 80 % 1030 hPa 0,0 l/m N -5,7 C -2,8 C 0,0 km/h (0 Bft)
09.02.2005 05:00 -2,7 C 83 % 1031 hPa 0,0 l/m N -5,2 C -2,7 C 0,0 km/h (0 Bft)
09.02.2005 06:00 -2,6 C 85 % 1031 hPa 0,0 l/m N -4,8 C -2,6 C 0,0 km/h (0 Bft)
09.02.2005 07:00 -2,7 C 86 % 1031 hPa 0,0 l/m N -4,8 C -2,7 C 0,0 km/h (0 Bft)
09.02.2005 08:00 -2,6 C 87 % 1031 hPa 0,0 l/m S -4,4 C -2,8 C 3,2 km/h (1 Bft)
09.02.2005 09:00 -1,4 C 83 % 1032 hPa 0,0 l/m N -3,9 C -1,4 C 0,0 km/h (0 Bft)
09.02.2005 10:00 0,5 C 75 % 1032 hPa 0,0 l/m S-SW -3,4 C 0,3 C 4,1 km/h (1 Bft)
09.02.2005 11:00 2,5 C 60 % 1032 hPa 0,0 l/m S-SW -4,5 C 1,7 C 7,2 km/h (2 Bft)
09.02.2005 12:00 4,8 C 50 % 1032 hPa 1,0 l/m S -4,7 C 3,3 C 8,7 km/h (2 Bft)
09.02.2005 13:00 7,1 C 43 % 1031 hPa 0,0 l/m S-SW -4,6 C 5,7 C 8,1 km/h (2 Bft)
09.02.2005 14:00 8,7 C 39 % 1031 hPa 0,0 l/m S-SW -4,4 C 8,0 C 5,8 km/h (2 Bft)
09.02.2005 15:00 8,4 C 39 % 1030 hPa 0,0 l/m S-SW -4,8 C 8,3 C 1,4 km/h (1 Bft)
09.02.2005 16:00 6,9 C 41 % 1030 hPa 0,0 l/m N -5,3 C 6,9 C 0,0 km/h (0 Bft)
09.02.2005 17:00 3,6 C 49 % 1031 hPa 0,0 l/m N -6,0 C 3,6 C 0,0 km/h (0 Bft)
09.02.2005 18:00 1,1 C 56 % 1031 hPa 0,0 l/m N -6,6 C 1,1 C 0,0 km/h (0 Bft)
09.02.2005 19:00 -0,5 C 63 % 1031 hPa 0,0 l/m N -6,7 C -0,5 C 0,0 km/h (0 Bft)
09.02.2005 20:00 -1,4 C 70 % 1032 hPa 0,0 l/m N -6,2 C -1,4 C 0,0 km/h (0 Bft)
09.02.2005 21:00 -2,2 C 74 % 1032 hPa 0,0 l/m N -6,2 C -2,2 C 0,0 km/h (0 Bft)
09.02.2005 22:00 -3,0 C 77 % 1032 hPa 0,0 l/m N -6,4 C -3,0 C 0,0 km/h (0 Bft)
09.02.2005 23:00 -3,6 C 80 % 1032 hPa 0,0 l/m N -6,6 C -3,6 C 0,0 km/h (0 Bft)
10.02.2005 00:00 -4,5 C 82 % 1032 hPa 0,0 l/m N -7,1 C -4,5 C 0,0 km/h (0 Bft)
10.02.2005 01:00 -5,2 C 84 % 1032 hPa 0,0 l/m N -7,5 C -5,2 C 0,0 km/h (0 Bft)
10.02.2005 02:00 -5,8 C 86 % 1032 hPa 0,0 l/m N -7,7 C -5,8 C 0,0 km/h (0 Bft)
10.02.2005 03:00 -6,2 C 88 % 1032 hPa 0,0 l/m S -7,9 C -6,2 C 0,4 km/h (0 Bft)
10.02.2005 04:00 -6,3 C 89 % 1032 hPa 0,0 l/m N -7,8 C -6,3 C 0,0 km/h (0 Bft)
10.02.2005 05:00 -6,5 C 90 % 1032 hPa 0,0 l/m W -7,8 C -6,5 C 0,3 km/h (0 Bft)
10.02.2005 06:00 -6,5 C 91 % 1032 hPa 0,0 l/m N -7,7 C -6,5 C 0,0 km/h (0 Bft)
10.02.2005 07:00 -5,7 C 93 % 1032 hPa 0,0 l/m S -6,8 C -5,8 C 2,7 km/h (1 Bft)
10.02.2005 08:00 -3,7 C 94 % 1032 hPa 0,0 l/m S-SO -4,5 C -7,6 C 11,8 km/h (2 Bft)
10.02.2005 09:00 -1,8 C 88 % 1032 hPa 0,0 l/m S -3,5 C -6,2 C 13,4 km/h (3 Bft)
10.02.2005 10:00 -0,1 C 81 % 1032 hPa 0,0 l/m S -3,0 C -4,1 C 11,6 km/h (2 Bft)
10.02.2005 11:00 1,1 C 74 % 1032 hPa 0,0 l/m S-SW -3,0 C -2,6 C 11,9 km/h (2 Bft)
10.02.2005 12:00 2,4 C 66 % 1032 hPa 0,0 l/m S-SW -3,4 C -3,4 C 15,8 km/h (3 Bft)
10.02.2005 13:00 3,9 C 55 % 1031 hPa 0,0 l/m S-SW -4,3 C -3,5 C 19,2 km/h (3 Bft)
10.02.2005 14:00 4,1 C 56 % 1030 hPa 0,0 l/m S-SW -4,0 C -2,4 C 17,0 km/h (3 Bft)
10.02.2005 15:00 3,9 C 61 % 1030 hPa 0,0 l/m SW -3,0 C -2,3 C 17,5 km/h (3 Bft)
10.02.2005 16:00 2,7 C 72 % 1030 hPa 0,0 l/m S-SW -1,8 C -4,3 C 18,5 km/h (3 Bft)
10.02.2005 17:00 2,1 C 74 % 1030 hPa 0,0 l/m S-SW -2,0 C -4,3 C 16,4 km/h (3 Bft)
10.02.2005 18:00 2,1 C 74 % 1030 hPa 0,0 l/m S-SW -2,0 C -2,1 C 12,7 km/h (3 Bft)
10.02.2005 19:00 3,5 C 65 % 1030 hPa 0,0 l/m S-SW -2,4 C -2,1 C 15,6 km/h (3 Bft)
10.02.2005 20:00 4,3 C 66 % 1030 hPa 0,0 l/m W-SW -1,6 C -2,0 C 18,2 km/h (3 Bft)
10.02.2005 21:00 3,5 C 81 % 1030 hPa 0,0 l/m SW 0,4 C -4,5 C 21,7 km/h (4 Bft)
10.02.2005 22:00 2,9 C 89 % 1030 hPa 0,0 l/m S-SW 1,2 C -4,1 C 17,7 km/h (3 Bft)
10.02.2005 23:00 3,1 C 86 % 1030 hPa 1,0 l/m S-SW 1,0 C -3,4 C 17,5 km/h (3 Bft)
11.02.2005 00:00 3,7 C 77 % 1029 hPa 0,0 l/m SW 0,1 C -4,0 C 22,0 km/h (4 Bft)
11.02.2005 01:00 2,7 C 86 % 1029 hPa 0,0 l/m S-SW 0,6 C -5,0 C 19,6 km/h (3 Bft)
11.02.2005 02:00 2,6 C 88 % 1029 hPa 0,0 l/m S-SW 0,8 C -4,1 C 17,4 km/h (3 Bft)
11.02.2005 03:00 3,6 C 81 % 1028 hPa 0,0 l/m W-SW 0,6 C -4,2 C 21,6 km/h (4 Bft)
11.02.2005 04:00 3,5 C 84 % 1028 hPa 0,0 l/m SW 1,0 C -3,5 C 19,4 km/h (3 Bft)
11.02.2005 05:00 3,6 C 83 % 1027 hPa 0,0 l/m SW 1,0 C -4,1 C 21,5 km/h (4 Bft)
11.02.2005 06:00 3,6 C 84 % 1027 hPa 0,0 l/m SW 1,1 C -3,6 C 20,0 km/h (4 Bft)
11.02.2005 07:00 3,5 C 84 % 1027 hPa 1,0 l/m SW 1,1 C -2,5 C 17,1 km/h (3 Bft)
11.02.2005 08:00 3,0 C 89 % 1026 hPa 0,0 l/m S-SW 1,3 C -2,4 C 14,6 km/h (3 Bft)
11.02.2005 09:00 2,6 C 92 % 1026 hPa 0,0 l/m SW 1,5 C -2,3 C 13,7 km/h (3 Bft)
11.02.2005 10:00 3,0 C 89 % 1026 hPa 0,0 l/m SW 1,4 C -1,3 C 13,4 km/h (3 Bft)
11.02.2005 11:00 4,0 C 80 % 1026 hPa 0,0 l/m SW 0,8 C -1,7 C 15,9 km/h (3 Bft)
11.02.2005 12:00 4,8 C 71 % 1025 hPa 0,0 l/m SW 0,0 C -2,4 C 20,8 km/h (4 Bft)
11.02.2005 13:00 4,8 C 72 % 1025 hPa 0,0 l/m SW 0,2 C -3,5 C 24,0 km/h (4 Bft)
11.02.2005 14:00 4,1 C 79 % 1024 hPa 0,0 l/m SW 0,8 C -3,6 C 20,9 km/h (4 Bft)
11.02.2005 15:00 3,4 C 88 % 1024 hPa 0,0 l/m SW 1,7 C -1,8 C 15,0 km/h (3 Bft)
11.02.2005 16:00 3,0 C 94 % 1023 hPa 0,0 l/m S-SW 2,1 C -2,0 C 14,7 km/h (3 Bft)
11.02.2005 17:00 3,0 C 97 % 1023 hPa 0,0 l/m S-SW 2,6 C -1,9 C 15,1 km/h (3 Bft)
11.02.2005 18:00 3,0 C 99 % 1023 hPa 0,0 l/m S-SW 3,0 C -1,5 C 13,8 km/h (3 Bft)
11.02.2005 19:00 3,0 C 100 % 1023 hPa 1,0 l/m S-SW 3,0 C -1,4 C 13,4 km/h (3 Bft)
11.02.2005 20:00 3,3 C 100 % 1023 hPa 0,0 l/m SW 3,3 C -3,4 C 18,5 km/h (3 Bft)
11.02.2005 21:00 3,5 C 100 % 1022 hPa 0,0 l/m S-SW 3,5 C -2,9 C 18,1 km/h (3 Bft)
11.02.2005 22:00 3,9 C 100 % 1022 hPa 0,0 l/m W-SW 3,9 C -2,2 C 16,9 km/h (3 Bft)
11.02.2005 23:00 4,1 C 100 % 1021 hPa 0,0 l/m W-SW 4,0 C -1,9 C 17,8 km/h (3 Bft)
12.02.2005 00:00 4,4 C 99 % 1021 hPa 0,0 l/m SW 4,2 C -2,7 C 20,7 km/h (4 Bft)
12.02.2005 01:00 4,4 C 100 % 1020 hPa 1,0 l/m SW 4,4 C -2,5 C 18,4 km/h (3 Bft)
12.02.2005 02:00 4,5 C 100 % 1020 hPa 0,0 l/m SW 4,5 C -1,7 C 17,8 km/h (3 Bft)
12.02.2005 03:00 4,7 C 100 % 1019 hPa 0,0 l/m SW 4,6 C -3,4 C 23,2 km/h (4 Bft)
12.02.2005 04:00 4,9 C 100 % 1018 hPa 0,0 l/m S-SW 4,9 C -3,4 C 24,2 km/h (4 Bft)
12.02.2005 05:00 5,3 C 99 % 1017 hPa 0,0 l/m SW 5,2 C -3,3 C 24,8 km/h (4 Bft)
12.02.2005 06:00 5,8 C 97 % 1016 hPa 0,0 l/m S-SW 5,3 C -2,9 C 27,1 km/h (4 Bft)
12.02.2005 07:00 6,1 C 94 % 1015 hPa 0,0 l/m S-SW 5,3 C -2,9 C 26,8 km/h (4 Bft)
12.02.2005 08:00 6,2 C 97 % 1015 hPa 1,0 l/m SW 5,7 C -2,7 C 27,2 km/h (4 Bft)
12.02.2005 09:00 6,7 C 96 % 1014 hPa 0,0 l/m SW 6,1 C -2,6 C 30,6 km/h (5 Bft)
12.02.2005 10:00 7,3 C 95 % 1014 hPa 0,0 l/m S 6,6 C -2,0 C 30,6 km/h (5 Bft)
12.02.2005 11:00 7,7 C 94 % 1013 hPa 0,0 l/m S-SW 6,8 C -1,6 C 30,8 km/h (5 Bft)
12.02.2005 12:00 8,5 C 88 % 1012 hPa 0,0 l/m S-SW 6,6 C -0,7 C 32,0 km/h (5 Bft)
12.02.2005 13:00 9,1 C 81 % 1010 hPa 0,0 l/m S-SW 6,0 C 0,1 C 30,4 km/h (5 Bft)
12.02.2005 14:00 9,1 C 77 % 1009 hPa 0,0 l/m S 5,3 C 0,5 C 30,4 km/h (5 Bft)
12.02.2005 15:00 8,3 C 83 % 1008 hPa 0,0 l/m S 5,7 C -0,6 C 30,8 km/h (5 Bft)
12.02.2005 16:00 8,0 C 85 % 1008 hPa 0,0 l/m S-SO 5,7 C -1,0 C 30,8 km/h (5 Bft)
12.02.2005 17:00 7,4 C 90 % 1007 hPa 1,0 l/m S-SO 5,8 C -1,8 C 29,4 km/h (5 Bft)
12.02.2005 18:00 7,2 C 91 % 1006 hPa 0,0 l/m S 5,8 C -1,8 C 29,0 km/h (5 Bft)
12.02.2005 19:00 7,2 C 91 % 1005 hPa 0,0 l/m S 5,8 C -2,6 C 32,6 km/h (5 Bft)
12.02.2005 20:00 7,4 C 91 % 1004 hPa 0,0 l/m S-SW 6,0 C -2,1 C 32,2 km/h (5 Bft)
12.02.2005 21:00 7,4 C 93 % 1003 hPa 1,0 l/m S 6,3 C -0,8 C 27,0 km/h (4 Bft)
12.02.2005 22:00 4,9 C 90 % 1004 hPa 4,0 l/m SW 3,4 C -4,6 C 29,1 km/h (5 Bft)
12.02.2005 23:00 3,8 C 92 % 1004 hPa 0,0 l/m S-SW 2,6 C -3,6 C 19,8 km/h (3 Bft)
13.02.2005 00:00 3,3 C 90 % 1005 hPa 2,0 l/m SW 1,9 C -4,2 C 21,3 km/h (4 Bft)
13.02.2005 01:00 2,8 C 92 % 1005 hPa 0,0 l/m S 1,6 C -4,0 C 19,5 km/h (3 Bft)
13.02.2005 02:00 1,8 C 94 % 1006 hPa 0,0 l/m SW 0,9 C -2,9 C 16,5 km/h (3 Bft)
13.02.2005 03:00 1,1 C 96 % 1006 hPa 0,0 l/m S-SW 0,6 C -5,1 C 16,9 km/h (3 Bft)
13.02.2005 04:00 1,1 C 95 % 1005 hPa 0,0 l/m S 0,4 C -7,4 C 22,3 km/h (4 Bft)
13.02.2005 05:00 1,2 C 93 % 1005 hPa 0,0 l/m S 0,2 C -7,0 C 22,2 km/h (4 Bft)
13.02.2005 06:00 1,2 C 91 % 1005 hPa 0,0 l/m S -0,2 C -7,7 C 23,0 km/h (4 Bft)
13.02.2005 11:00 2,8 C 71 % 1001 hPa 3,0 l/m S -1,9 C -6,5 C 28,6 km/h (4 Bft)
13.02.2005 12:00 3,7 C 70 % 1000 hPa 0,0 l/m SO -1,2 C -4,0 C 21,0 km/h (4 Bft)
13.02.2005 13:00 3,3 C 69 % 999 hPa 0,0 l/m S-SO -1,9 C -6,5 C 29,2 km/h (5 Bft)
13.02.2005 14:00 2,7 C 73 % 998 hPa 0,0 l/m W-SW -1,6 C -7,3 C 27,2 km/h (4 Bft)
13.02.2005 15:00 1,7 C 82 % 997 hPa 0,0 l/m W-SW -1,1 C -8,3 C 26,5 km/h (4 Bft)
13.02.2005 16:00 0,1 C 96 % 997 hPa 0,0 l/m W-SW -0,4 C -4,4 C 13,0 km/h (3 Bft)
13.02.2005 17:00 0,1 C 93 % 997 hPa 0,0 l/m W-SW -0,9 C -1,9 C 9,1 km/h (2 Bft)
13.02.2005 18:00 -0,2 C 90 % 997 hPa 0,0 l/m W-SW -1,6 C -0,8 C 6,4 km/h (2 Bft)
13.02.2005 19:00 -0,4 C 90 % 997 hPa 0,0 l/m W-SW -1,9 C -1,8 C 5,2 km/h (1 Bft)
13.02.2005 20:00 -0,6 C 89 % 998 hPa 0,0 l/m S-SW -2,3 C -2,6 C 7,8 km/h (2 Bft)
13.02.2005 21:00 -0,7 C 88 % 999 hPa 0,0 l/m W-SW -2,5 C -3,0 C 9,0 km/h (2 Bft)
13.02.2005 22:00 -0,9 C 82 % 1000 hPa 0,0 l/m W-SW -3,6 C -5,0 C 12,0 km/h (2 Bft)
13.02.2005 23:00 -0,9 C 78 % 1001 hPa 0,0 l/m SW -4,3 C -4,1 C 10,7 km/h (2 Bft)
Min-Datum _ 08.02.05 09.02.05 13.02.05 - - 08.02.05 13.02.05 07.02.05
_ Min-Zeit 05:22 14:06 15:00 - - 05:22 05:48 00:16
Minimum _ -12,6 C 39 % 997 hPa - - -14,6 C -14,1 C 0,0 km/h (0 Bft)
Max-Datum _ 12.02.05 11.02.05 09.02.05 12.02.05 - 12.02.05 12.02.05 12.02.05
_ Max-Zeit 13:42 18:28 08:57 22:01 - 12:10 13:57 20:43
Maximum _ 9,3 C 100 % 1032 hPa 4,0 l/m - 6,9 C 9,3 C 67,0 km/h
S-SW (8 Bft)
Durchschnitt _ 0,2 C 81 % 1023 hPa #17,0 l/m S-SW -2,9 C -3,4 C 11,2 km/h (2 Bft)

Durchschnitt Minimum Temp.-0,4 C
Durchschnitt Maximum Temp.0,8 C